Time;durP1;ratioP1;P1;durP2;ratioP2;P2;SDS_P1;SDS_P2;PMS_P1;PMS_P2;Temp;Humidity;BMP_temperature;BMP_pressure;BME280_temperature;BME280_humidity;BME280_pressure;Samples;Min_cycle;Max_cycle;Signal;HPM_P1;HPM_P2
2022/01/05 00:01:35;;;;;;;4.00;2.40;;;23.80;40.60;;;;;;5004917;28;20042;-45
2022/01/05 00:04:01;;;;;;;4.25;2.30;;;23.90;40.70;;;;;;5004182;28;20034;-45
2022/01/05 00:06:26;;;;;;;4.25;2.33;;;23.80;40.50;;;;;;5004860;28;20033;-45
2022/01/05 00:08:52;;;;;;;3.90;2.20;;;23.90;40.60;;;;;;5004109;28;20136;-45
2022/01/05 00:11:18;;;;;;;3.80;2.20;;;23.80;40.60;;;;;;5005236;28;20038;-46
2022/01/05 00:13:44;;;;;;;3.97;2.47;;;23.90;40.60;;;;;;5004299;28;20026;-46
2022/01/05 00:16:10;;;;;;;4.07;2.45;;;23.80;40.50;;;;;;5003170;28;20033;-45
2022/01/05 00:18:36;;;;;;;3.45;2.20;;;23.80;40.60;;;;;;5005063;28;20038;-45
2022/01/05 00:21:03;;;;;;;3.75;2.30;;;23.80;40.50;;;;;;5004400;28;20034;-45
2022/01/05 00:23:29;;;;;;;3.55;1.70;;;23.80;40.50;;;;;;5004664;28;20074;-45
2022/01/05 00:25:55;;;;;;;3.75;2.22;;;23.80;40.50;;;;;;5004159;28;20057;-45
2022/01/05 00:28:20;;;;;;;3.25;1.83;;;23.80;40.60;;;;;;5005269;28;20025;-46
2022/01/05 00:30:46;;;;;;;3.40;1.88;;;23.80;40.50;;;;;;5008053;28;20030;-46
2022/01/05 00:33:13;;;;;;;3.60;1.80;;;23.80;40.50;;;;;;5008509;28;20037;-45
2022/01/05 00:35:38;;;;;;;3.38;2.00;;;23.80;40.50;;;;;;5020758;28;20120;-45
2022/01/05 00:38:04;;;;;;;3.17;1.58;;;23.80;40.50;;;;;;5028261;28;20675;-46
2022/01/05 00:40:30;;;;;;;3.38;1.80;;;23.80;40.50;;;;;;5028474;28;20057;-45
2022/01/05 00:42:56;;;;;;;2.75;1.50;;;23.80;40.50;;;;;;5012736;28;20275;-46
2022/01/05 00:45:22;;;;;;;4.03;2.30;;;23.80;40.50;;;;;;5008191;28;20093;-45
2022/01/05 00:47:48;;;;;;;3.30;1.90;;;23.80;40.50;;;;;;5007850;28;20275;-45
2022/01/05 00:50:14;;;;;;;3.45;1.95;;;23.80;40.50;;;;;;5022298;28;20021;-46
2022/01/05 00:52:39;;;;;;;4.00;1.88;;;23.80;40.50;;;;;;5047447;28;20467;-45
2022/01/05 00:55:05;;;;;;;3.90;2.00;;;23.80;40.50;;;;;;5047202;28;20017;-45
2022/01/05 00:57:31;;;;;;;3.70;2.00;;;23.80;40.50;;;;;;5047606;28;20041;-46
2022/01/05 00:59:57;;;;;;;2.75;1.42;;;23.80;40.50;;;;;;5031517;28;20040;-45
2022/01/05 01:02:22;;;;;;;3.92;2.00;;;23.80;40.50;;;;;;5007820;28;20717;-45
2022/01/05 01:04:48;;;;;;;3.25;1.80;;;23.80;40.50;;;;;;5007257;28;20105;-45
2022/01/05 01:07:14;;;;;;;3.17;1.80;;;23.70;40.50;;;;;;5007569;28;20140;-46
2022/01/05 01:09:40;;;;;;;3.60;1.92;;;23.70;40.50;;;;;;5007522;28;20109;-45
2022/01/05 01:12:06;;;;;;;2.97;1.55;;;23.70;40.50;;;;;;5006917;28;20101;-45
2022/01/05 01:14:32;;;;;;;3.17;1.73;;;23.70;40.50;;;;;;5007216;28;20034;-44
2022/01/05 01:16:57;;;;;;;3.50;1.80;;;23.70;40.60;;;;;;5007009;28;20300;-46
2022/01/05 01:19:23;;;;;;;2.72;1.52;;;23.70;40.60;;;;;;5007201;28;20100;-45
2022/01/05 01:21:49;;;;;;;2.92;1.35;;;23.70;40.50;;;;;;5006402;28;20520;-45
2022/01/05 01:24:15;;;;;;;3.08;1.67;;;23.70;40.60;;;;;;5006720;28;20068;-46
2022/01/05 01:26:41;;;;;;;2.55;1.40;;;23.70;40.60;;;;;;5005447;28;20038;-45
2022/01/05 01:29:06;;;;;;;2.35;1.35;;;23.70;40.60;;;;;;5006342;28;20030;-46
2022/01/05 01:31:32;;;;;;;2.75;1.70;;;23.60;40.60;;;;;;5007247;28;20697;-45
2022/01/05 01:33:58;;;;;;;2.70;1.45;;;23.60;40.50;;;;;;5006781;28;20390;-46
2022/01/05 01:36:23;;;;;;;3.03;1.60;;;23.60;40.50;;;;;;5019516;28;20033;-46
2022/01/05 01:38:49;;;;;;;3.20;1.50;;;23.60;40.50;;;;;;5026332;28;20033;-45
2022/01/05 01:41:15;;;;;;;2.80;1.48;;;23.60;40.50;;;;;;5023896;28;20434;-45
2022/01/05 01:43:41;;;;;;;2.75;1.45;;;23.60;40.50;;;;;;5006801;28;20034;-45
2022/01/05 01:46:08;;;;;;;2.60;1.35;;;23.60;40.50;;;;;;5006896;28;20037;-45
2022/01/05 01:48:34;;;;;;;2.95;1.50;;;23.60;40.50;;;;;;5007339;28;20656;-46
2022/01/05 01:51:00;;;;;;;2.88;1.63;;;23.60;40.40;;;;;;5033711;28;20047;-45
2022/01/05 01:53:26;;;;;;;2.90;1.52;;;23.60;40.40;;;;;;5046200;28;20056;-45
2022/01/05 01:55:52;;;;;;;3.33;1.58;;;23.60;40.40;;;;;;5046509;28;20029;-45
2022/01/05 01:58:19;;;;;;;2.72;1.30;;;23.60;40.50;;;;;;5046885;28;20270;-45
2022/01/05 02:00:45;;;;;;;2.65;1.33;;;23.60;40.40;;;;;;5019697;28;20057;-46
2022/01/05 02:03:14;;;;;;;3.22;1.67;;;23.60;40.40;;;;;;5006321;28;20073;-46
2022/01/05 02:05:40;;;;;;;2.67;1.42;;;23.50;40.40;;;;;;5006674;28;20034;-46
2022/01/05 02:08:06;;;;;;;3.10;1.40;;;23.50;40.40;;;;;;5006594;28;20104;-46
2022/01/05 02:10:32;;;;;;;3.03;1.55;;;23.60;40.50;;;;;;5006694;28;20502;-46
2022/01/05 02:12:58;;;;;;;2.58;1.30;;;23.50;40.40;;;;;;5004352;28;20030;-45
2022/01/05 02:15:24;;;;;;;2.10;1.10;;;23.50;40.40;;;;;;5006584;28;20034;-46
2022/01/05 02:18:07;;;;;;;2.65;1.30;;;23.60;40.40;;;;;;5006716;28;20083;-45
2022/01/05 02:20:33;;;;;;;2.65;1.45;;;23.50;40.40;;;;;;5005966;28;20072;-45
2022/01/05 02:22:59;;;;;;;1.90;1.10;;;23.50;40.40;;;;;;5005415;28;20022;-46
2022/01/05 02:25:25;;;;;;;3.13;1.30;;;23.50;40.40;;;;;;5005840;28;20478;-45
2022/01/05 02:27:53;;;;;;;2.33;1.27;;;23.50;40.40;;;;;;5005777;28;20022;-44
2022/01/05 02:30:27;;;;;;;2.10;1.13;;;23.50;40.40;;;;;;5005811;28;20402;-45
2022/01/05 02:32:54;;;;;;;2.10;1.13;;;23.50;40.40;;;;;;5005575;28;20026;-45
2022/01/05 02:35:20;;;;;;;2.50;1.40;;;23.50;40.40;;;;;;5006471;28;20247;-45
2022/01/05 02:37:50;;;;;;;1.92;1.08;;;23.50;40.40;;;;;;5004929;28;20022;-45
2022/01/05 02:40:18;;;;;;;2.00;1.05;;;23.50;40.40;;;;;;5006079;28;20033;-45
2022/01/05 02:42:44;;;;;;;2.78;1.48;;;23.50;40.40;;;;;;5005794;28;20669;-45
2022/01/05 02:45:12;;;;;;;2.30;1.10;;;23.50;40.40;;;;;;5006051;28;20112;-45
2022/01/05 02:47:38;;;;;;;2.45;1.08;;;23.50;40.40;;;;;;5005235;28;20111;-45
2022/01/05 02:50:06;;;;;;;2.20;1.20;;;23.50;40.40;;;;;;5032265;28;20025;-45
2022/01/05 02:52:32;;;;;;;1.73;0.85;;;23.50;40.40;;;;;;5044764;28;20090;-45
2022/01/05 02:54:57;;;;;;;1.92;1.13;;;23.50;40.40;;;;;;5045619;28;20040;-45
2022/01/05 02:57:24;;;;;;;2.55;1.10;;;23.50;40.40;;;;;;5045537;28;20429;-46
2022/01/05 02:59:49;;;;;;;2.08;1.00;;;23.50;40.40;;;;;;5034839;28;20037;-45
2022/01/05 03:02:15;;;;;;;1.85;0.98;;;23.50;40.40;;;;;;5012213;28;20037;-44
2022/01/05 03:04:41;;;;;;;2.30;1.15;;;23.50;40.40;;;;;;5024824;28;20055;-45
2022/01/05 03:07:08;;;;;;;1.98;0.93;;;23.50;40.40;;;;;;5022821;28;20115;-45
2022/01/05 03:09:34;;;;;;;2.00;0.98;;;23.40;40.40;;;;;;5025144;28;20530;-45
2022/01/05 03:12:00;;;;;;;2.25;1.00;;;23.40;40.40;;;;;;5019222;28;20038;-45
2022/01/05 03:14:26;;;;;;;2.20;1.20;;;23.40;40.40;;;;;;5005394;28;20057;-46
2022/01/05 03:16:52;;;;;;;1.42;0.95;;;23.40;40.40;;;;;;5004612;28;20030;-46
2022/01/05 03:19:17;;;;;;;1.63;0.90;;;23.40;40.40;;;;;;5005573;28;20062;-45
2022/01/05 03:21:43;;;;;;;2.03;1.00;;;23.40;40.40;;;;;;5005018;28;20026;-46
2022/01/05 03:24:09;;;;;;;1.98;1.02;;;23.40;40.40;;;;;;5005245;28;20034;-45
2022/01/05 03:26:35;;;;;;;1.80;0.82;;;23.40;40.40;;;;;;5005290;28;20522;-44
2022/01/05 03:29:00;;;;;;;2.08;0.88;;;23.40;40.40;;;;;;5004995;28;20574;-45
2022/01/05 03:31:26;;;;;;;1.98;0.90;;;23.40;40.40;;;;;;5005198;28;20052;-46
2022/01/05 03:33:52;;;;;;;2.70;1.10;;;23.40;40.40;;;;;;5004642;28;20029;-45
2022/01/05 03:36:18;;;;;;;1.88;0.90;;;23.30;40.40;;;;;;5004982;28;20032;-45
2022/01/05 03:38:44;;;;;;;2.70;1.15;;;23.30;40.40;;;;;;5021584;28;20025;-45
2022/01/05 03:41:09;;;;;;;2.17;1.05;;;23.40;40.40;;;;;;5019471;28;20104;-45
2022/01/05 03:43:35;;;;;;;2.03;0.82;;;23.40;40.40;;;;;;5013802;28;20029;-45
2022/01/05 03:46:01;;;;;;;1.70;0.90;;;23.30;40.40;;;;;;5018517;28;20386;-46
2022/01/05 03:48:26;;;;;;;1.98;1.10;;;23.30;40.40;;;;;;5024896;28;20022;-45
2022/01/05 03:50:52;;;;;;;2.65;1.25;;;23.30;40.40;;;;;;5036329;28;20032;-45
2022/01/05 03:53:18;;;;;;;1.08;0.60;;;23.40;40.40;;;;;;5044166;28;20060;-45
2022/01/05 03:55:45;;;;;;;1.33;0.60;;;23.40;40.40;;;;;;5041799;28;20032;-45
2022/01/05 03:58:11;;;;;;;1.42;0.73;;;23.30;40.40;;;;;;5022072;28;20029;-46
2022/01/05 04:00:43;;;;;;;1.60;0.80;;;23.30;40.40;;;;;;5013306;28;20026;-46
2022/01/05 04:03:09;;;;;;;1.38;0.65;;;23.30;40.40;;;;;;5003043;28;20037;-45
2022/01/05 04:05:35;;;;;;;1.48;0.70;;;23.30;40.40;;;;;;5008338;28;20029;-46
2022/01/05 04:08:01;;;;;;;1.73;0.88;;;23.30;40.40;;;;;;5007935;28;20034;-45
2022/01/05 04:10:27;;;;;;;1.23;0.60;;;23.30;40.40;;;;;;5008062;28;20078;-45
2022/01/05 04:12:53;;;;;;;1.67;0.85;;;23.30;40.40;;;;;;5007614;28;20112;-46
2022/01/05 04:15:19;;;;;;;1.58;0.60;;;23.30;40.40;;;;;;5007100;28;20508;-45
2022/01/05 04:17:45;;;;;;;1.20;0.63;;;23.30;40.50;;;;;;5009885;28;20029;-46
2022/01/05 04:20:12;;;;;;;1.20;0.65;;;23.30;40.40;;;;;;5019831;28;20095;-46
2022/01/05 04:22:39;;;;;;;1.08;0.60;;;23.30;40.40;;;;;;5023530;28;20580;-46
2022/01/05 04:25:05;;;;;;;1.20;0.60;;;23.30;40.40;;;;;;5027699;28;20029;-46
2022/01/05 04:27:31;;;;;;;2.05;0.80;;;23.30;40.40;;;;;;5028226;28;20029;-46
2022/01/05 04:29:57;;;;;;;0.80;0.50;;;23.30;40.40;;;;;;5023930;28;20054;-46
2022/01/05 04:32:22;;;;;;;1.65;0.90;;;23.30;40.50;;;;;;5015665;28;20041;-44
2022/01/05 04:34:48;;;;;;;1.35;0.60;;;23.30;40.40;;;;;;5019232;28;20113;-45
2022/01/05 04:37:14;;;;;;;1.25;0.60;;;23.30;40.40;;;;;;5023883;28;20042;-45
2022/01/05 04:39:39;;;;;;;1.50;0.73;;;23.30;40.40;;;;;;5024231;28;20064;-46
2022/01/05 04:42:05;;;;;;;1.25;0.55;;;23.30;40.50;;;;;;5024502;28;20026;-45
2022/01/05 04:44:31;;;;;;;1.27;0.60;;;23.30;40.50;;;;;;5025568;28;20041;-46
2022/01/05 04:46:57;;;;;;;1.02;0.52;;;23.30;40.60;;;;;;5024387;28;20120;-46
2022/01/05 04:49:23;;;;;;;1.50;0.70;;;23.30;40.70;;;;;;5024348;28;20109;-47
2022/01/05 04:51:50;;;;;;;1.30;0.70;;;23.30;40.80;;;;;;5028353;28;20091;-48
2022/01/05 04:54:15;;;;;;;1.48;0.73;;;23.30;40.90;;;;;;5024594;28;20025;-48
2022/01/05 04:56:41;;;;;;;2.00;0.50;;;23.30;41.10;;;;;;5027042;28;20211;-48
2022/01/05 04:59:07;;;;;;;1.60;0.50;;;23.30;41.50;;;;;;5026912;28;20043;-47
2022/01/05 05:01:33;;;;;;;2.60;0.80;;;23.30;42.50;;;;;;5024877;28;20069;-48
2022/01/05 05:03:58;;;;;;;3.63;1.27;;;23.30;41.70;;;;;;5026561;28;20022;-47
2022/01/05 05:06:24;;;;;;;4.63;1.10;;;23.30;41.70;;;;;;5027208;28;20100;-47
2022/01/05 05:08:50;;;;;;;3.95;1.20;;;23.30;41.40;;;;;;5023595;28;20076;-47
2022/01/05 05:11:16;;;;;;;3.25;0.93;;;23.30;41.30;;;;;;5026688;28;20022;-49
2022/01/05 05:13:42;;;;;;;4.10;1.00;;;23.30;41.20;;;;;;5010021;28;20037;-46
2022/01/05 05:16:08;;;;;;;3.90;0.90;;;23.30;41.40;;;;;;5006604;28;20092;-47
2022/01/05 05:18:34;;;;;;;3.05;0.82;;;23.30;41.40;;;;;;5007667;28;20054;-47
2022/01/05 05:21:01;;;;;;;2.20;0.60;;;23.30;41.30;;;;;;5006198;28;20036;-47
2022/01/05 05:23:27;;;;;;;2.38;0.70;;;23.30;41.30;;;;;;5006892;28;20057;-48
2022/01/05 05:25:53;;;;;;;2.53;0.77;;;23.40;41.20;;;;;;5006935;28;20118;-47
2022/01/05 05:28:18;;;;;;;2.97;0.70;;;23.40;41.20;;;;;;5007094;28;20108;-47
2022/01/05 05:30:44;;;;;;;2.55;0.80;;;23.40;41.20;;;;;;5007290;28;20395;-48
2022/01/05 05:33:10;;;;;;;2.97;0.93;;;23.50;41.40;;;;;;5006790;28;20053;-48
2022/01/05 05:35:35;;;;;;;3.45;0.90;;;23.50;41.40;;;;;;5007137;28;20509;-48
2022/01/05 05:38:01;;;;;;;1.75;0.70;;;23.60;41.40;;;;;;5006357;28;20601;-49
2022/01/05 05:40:27;;;;;;;4.40;0.95;;;23.60;41.30;;;;;;5007171;28;20109;-48
2022/01/05 05:42:53;;;;;;;3.05;0.65;;;23.70;41.40;;;;;;5006407;28;20022;-48
2022/01/05 05:45:19;;;;;;;2.50;0.70;;;23.80;41.20;;;;;;5006960;28;20133;-47
2022/01/05 05:47:45;;;;;;;2.55;0.80;;;23.80;41.20;;;;;;5007236;28;20445;-48
2022/01/05 05:50:11;;;;;;;2.55;0.80;;;23.80;41.00;;;;;;5019666;28;20084;-47
2022/01/05 05:52:37;;;;;;;1.70;0.70;;;23.90;41.00;;;;;;5046603;28;20401;-49
2022/01/05 05:55:03;;;;;;;1.38;0.50;;;23.90;40.90;;;;;;5046585;28;20032;-46
2022/01/05 05:57:29;;;;;;;1.63;0.70;;;24.00;40.80;;;;;;5046395;28;20623;-48
2022/01/05 05:59:54;;;;;;;1.48;0.60;;;24.00;40.70;;;;;;5040318;28;20033;-49
2022/01/05 06:02:20;;;;;;;2.55;0.93;;;24.10;40.70;;;;;;5006366;28;20034;-48
2022/01/05 06:04:46;;;;;;;1.30;0.50;;;24.10;40.60;;;;;;5005882;28;20037;-49
2022/01/05 06:07:11;;;;;;;2.08;0.60;;;24.20;40.40;;;;;;5005961;28;20120;-49
2022/01/05 06:09:37;;;;;;;1.42;0.50;;;24.20;40.30;;;;;;5005720;28;20120;-47
2022/01/05 06:12:03;;;;;;;0.95;0.40;;;24.30;40.30;;;;;;5004169;28;20026;-48
2022/01/05 06:14:29;;;;;;;0.93;0.47;;;24.30;40.20;;;;;;4992592;28;20037;-48
2022/01/05 06:16:55;;;;;;;2.97;0.60;;;24.30;40.10;;;;;;5005003;28;20042;-48
2022/01/05 06:19:21;;;;;;;1.50;0.63;;;24.40;40.00;;;;;;5005881;28;20026;-48
2022/01/05 06:21:47;;;;;;;1.30;0.43;;;24.40;40.00;;;;;;5004526;28;20048;-47
2022/01/05 06:24:13;;;;;;;2.40;0.73;;;24.50;39.90;;;;;;5005333;28;20022;-48
2022/01/05 06:26:39;;;;;;;0.65;0.40;;;24.50;39.90;;;;;;5004844;28;20034;-47
2022/01/05 06:29:04;;;;;;;1.52;0.52;;;24.50;39.90;;;;;;5004632;28;20034;-48
2022/01/05 06:31:30;;;;;;;1.92;0.73;;;24.50;39.80;;;;;;5013312;28;20405;-48
2022/01/05 06:33:56;;;;;;;1.75;0.50;;;24.60;39.80;;;;;;5021879;28;20051;-51
2022/01/05 06:36:22;;;;;;;1.48;0.60;;;24.60;39.70;;;;;;5023588;28;20025;-49
2022/01/05 06:38:47;;;;;;;1.35;0.40;;;24.60;39.60;;;;;;5021741;28;20028;-49
2022/01/05 06:41:13;;;;;;;1.40;0.52;;;24.70;39.70;;;;;;5024044;28;20018;-49
2022/01/05 06:43:39;;;;;;;1.77;0.52;;;24.60;39.50;;;;;;5022445;28;21171;-48
2022/01/05 06:46:05;;;;;;;2.03;0.50;;;24.70;39.60;;;;;;5023711;28;20033;-48
2022/01/05 06:48:30;;;;;;;1.75;0.50;;;24.70;39.50;;;;;;5024833;28;20119;-47
2022/01/05 06:50:56;;;;;;;2.13;0.43;;;24.80;39.40;;;;;;5025223;28;20026;-48
2022/01/05 06:53:22;;;;;;;1.83;0.52;;;24.80;39.40;;;;;;5024392;28;20107;-47
2022/01/05 06:55:48;;;;;;;1.90;0.52;;;24.80;39.30;;;;;;5024179;28;20647;-49
2022/01/05 06:58:13;;;;;;;3.15;0.60;;;24.80;39.30;;;;;;5024298;28;20029;-49
2022/01/05 07:00:39;;;;;;;0.80;0.40;;;24.80;39.30;;;;;;5023653;28;20037;-48
2022/01/05 07:03:05;;;;;;;1.05;0.40;;;24.90;39.30;;;;;;5024187;28;20101;-50
2022/01/05 07:05:31;;;;;;;0.93;0.52;;;24.90;39.50;;;;;;5025058;28;20032;-49
2022/01/05 07:07:57;;;;;;;2.17;0.40;;;24.90;39.60;;;;;;5024478;28;20478;-48
2022/01/05 07:10:22;;;;;;;0.90;0.40;;;25.00;39.50;;;;;;5022942;28;20247;-49
2022/01/05 07:12:48;;;;;;;2.03;0.52;;;24.90;39.60;;;;;;5014196;28;20034;-47
2022/01/05 07:15:15;;;;;;;2.20;0.50;;;25.00;39.40;;;;;;5014777;28;20018;-48
2022/01/05 07:17:40;;;;;;;2.58;0.82;;;25.00;39.30;;;;;;5004545;28;20030;-48
2022/01/05 07:20:07;;;;;;;1.75;0.60;;;25.00;39.20;;;;;;5004450;28;20509;-49
2022/01/05 07:22:34;;;;;;;1.30;0.40;;;25.00;39.20;;;;;;5004888;28;20030;-47
2022/01/05 07:25:00;;;;;;;1.23;0.40;;;25.00;39.10;;;;;;5003931;28;20028;-47
2022/01/05 07:27:26;;;;;;;1.33;0.45;;;25.00;39.00;;;;;;5005087;28;20108;-47
2022/01/05 07:29:52;;;;;;;1.05;0.40;;;25.00;39.00;;;;;;5015389;28;20033;-47
2022/01/05 07:32:18;;;;;;;1.85;0.65;;;25.10;38.90;;;;;;5004603;28;20506;-48
2022/01/05 07:34:43;;;;;;;1.13;0.50;;;25.10;38.90;;;;;;5004707;28;20038;-48
2022/01/05 07:37:12;;;;;;;1.17;0.35;;;25.10;38.90;;;;;;5005062;28;20033;-47
2022/01/05 07:39:38;;;;;;;1.70;0.30;;;25.10;38.70;;;;;;5005011;28;20049;-47
2022/01/05 07:42:04;;;;;;;1.83;0.57;;;25.10;38.90;;;;;;5004541;28;20022;-48
2022/01/05 07:44:30;;;;;;;1.92;0.95;;;25.10;38.70;;;;;;5004919;28;20034;-48
2022/01/05 07:46:56;;;;;;;1.08;0.47;;;25.10;38.80;;;;;;5022056;28;20038;-48
2022/01/05 07:49:21;;;;;;;2.47;0.60;;;25.10;38.90;;;;;;5024877;28;20391;-47
2022/01/05 07:51:47;;;;;;;1.23;0.40;;;25.10;38.90;;;;;;5044265;28;20032;-47
2022/01/05 07:54:13;;;;;;;2.65;0.40;;;25.10;38.60;;;;;;5044144;28;20026;-49
2022/01/05 07:56:39;;;;;;;3.78;0.55;;;25.00;38.80;;;;;;5044526;28;20025;-48
2022/01/05 07:59:05;;;;;;;1.92;0.55;;;25.00;38.70;;;;;;5044697;28;20108;-48
2022/01/05 08:01:31;;;;;;;1.30;0.40;;;25.10;38.80;;;;;;5014527;28;20060;-48
2022/01/05 08:03:57;;;;;;;1.88;0.50;;;25.00;38.80;;;;;;5004195;28;20057;-47
2022/01/05 08:06:23;;;;;;;2.05;0.55;;;25.00;38.80;;;;;;5006953;28;20038;-47
2022/01/05 08:08:49;;;;;;;2.83;1.02;;;25.00;38.70;;;;;;5003697;28;20462;-49
2022/01/05 08:11:16;;;;;;;3.22;0.88;;;25.00;38.80;;;;;;5004304;28;20567;-47
2022/01/05 08:13:42;;;;;;;3.50;0.98;;;25.00;38.70;;;;;;5003373;28;20030;-48
2022/01/05 08:16:07;;;;;;;1.02;0.43;;;25.00;39.40;;;;;;5004203;28;20076;-47
2022/01/05 08:18:33;;;;;;;1.73;0.60;;;25.00;38.70;;;;;;5004159;28;20029;-48
2022/01/05 08:20:59;;;;;;;2.10;0.50;;;25.00;38.80;;;;;;5004210;28;20115;-47
2022/01/05 08:23:25;;;;;;;1.60;0.40;;;25.00;38.70;;;;;;5004079;28;20034;-48
2022/01/05 08:25:52;;;;;;;1.30;0.50;;;25.00;38.60;;;;;;5004251;28;20129;-49
2022/01/05 08:28:18;;;;;;;0.95;0.40;;;25.00;38.70;;;;;;5016741;28;20033;-47
2022/01/05 08:30:45;;;;;;;1.38;0.45;;;24.90;38.70;;;;;;5021672;28;20511;-46
2022/01/05 08:33:12;;;;;;;1.92;0.52;;;24.90;38.70;;;;;;5022690;28;20112;-49
2022/01/05 08:35:38;;;;;;;1.95;0.68;;;24.90;38.70;;;;;;5023153;28;20029;-48
2022/01/05 08:38:04;;;;;;;2.17;0.60;;;24.90;38.70;;;;;;5020903;28;20025;-48
2022/01/05 08:40:32;;;;;;;1.33;0.40;;;24.90;38.80;;;;;;5021881;28;20037;-47
2022/01/05 08:42:59;;;;;;;2.75;0.50;;;24.90;38.70;;;;;;5020713;28;20123;-48
2022/01/05 08:45:26;;;;;;;1.40;0.50;;;24.90;38.70;;;;;;5021291;28;20057;-47
2022/01/05 08:47:54;;;;;;;1.25;0.40;;;25.00;39.30;;;;;;5022437;28;20366;-47
2022/01/05 08:50:22;;;;;;;1.27;0.50;;;24.90;38.70;;;;;;5023173;28;20037;-46
2022/01/05 08:52:48;;;;;;;0.98;0.30;;;24.90;38.70;;;;;;5026246;28;20041;-47
2022/01/05 08:55:16;;;;;;;1.60;0.40;;;24.90;38.60;;;;;;5025868;28;20107;-48
2022/01/05 08:57:42;;;;;;;0.85;0.32;;;25.00;38.50;;;;;;5024185;28;20025;-47
2022/01/05 09:00:10;;;;;;;0.70;0.20;;;24.90;38.60;;;;;;5025727;28;20029;-47
2022/01/05 09:02:36;;;;;;;1.35;0.50;;;25.00;38.40;;;;;;5007757;28;20042;-48
2022/01/05 09:05:03;;;;;;;1.05;0.40;;;25.00;38.50;;;;;;5007660;28;20092;-48
2022/01/05 09:07:29;;;;;;;1.10;0.30;;;24.90;38.50;;;;;;5007811;28;20038;-48
2022/01/05 09:09:56;;;;;;;0.75;0.30;;;25.00;38.30;;;;;;5007634;28;20549;-48
2022/01/05 09:12:21;;;;;;;1.27;0.30;;;24.90;38.40;;;;;;5007250;28;20026;-49
2022/01/05 09:14:47;;;;;;;0.93;0.50;;;25.00;38.40;;;;;;5007563;28;20441;-47
2022/01/05 09:17:13;;;;;;;3.00;0.50;;;25.00;38.30;;;;;;5007550;28;20030;-48
2022/01/05 09:19:39;;;;;;;1.02;0.40;;;25.00;38.30;;;;;;5007446;28;20037;-47
2022/01/05 09:22:05;;;;;;;1.13;0.40;;;25.00;38.40;;;;;;5007318;28;20257;-49
2022/01/05 09:24:32;;;;;;;1.15;0.40;;;24.90;38.30;;;;;;5007189;28;20034;-48
2022/01/05 09:27:02;;;;;;;1.45;0.70;;;25.00;38.30;;;;;;5007159;28;20026;-46
2022/01/05 09:29:32;;;;;;;1.13;0.40;;;24.90;38.30;;;;;;5007221;28;20560;-47
2022/01/05 09:32:03;;;;;;;0.95;0.32;;;24.90;38.30;;;;;;5007164;28;20037;-47
2022/01/05 09:34:30;;;;;;;1.38;0.40;;;25.00;38.40;;;;;;5007070;28;20088;-49
2022/01/05 09:37:00;;;;;;;1.38;0.40;;;24.90;38.20;;;;;;5007165;28;20049;-47
2022/01/05 09:42:10;;;;;;;1.17;0.38;;;24.90;38.30;;;;;;5006888;28;20029;-47
2022/01/05 09:44:43;;;;;;;1.20;0.30;;;25.00;38.20;;;;;;5006713;28;20021;-46
2022/01/05 09:47:33;;;;;;;1.13;0.40;;;24.90;38.20;;;;;;5006779;28;20558;-46
2022/01/05 09:50:05;;;;;;;0.30;0.20;;;24.90;38.30;;;;;;5016407;28;20041;-48
2022/01/05 09:52:32;;;;;;;0.73;0.30;;;25.00;38.20;;;;;;5046216;28;20067;-47
2022/01/05 09:54:58;;;;;;;1.60;0.25;;;24.90;38.20;;;;;;5046203;28;20041;-47
2022/01/05 09:57:24;;;;;;;0.60;0.20;;;24.90;38.20;;;;;;5045692;28;20052;-48
2022/01/05 09:59:51;;;;;;;1.25;0.30;;;24.90;38.20;;;;;;5031295;28;20091;-48
2022/01/05 10:02:18;;;;;;;0.95;0.40;;;25.00;38.20;;;;;;5005223;28;20034;-49
2022/01/05 10:04:46;;;;;;;0.75;0.20;;;25.00;38.10;;;;;;5006722;28;20030;-48
2022/01/05 10:07:13;;;;;;;1.65;0.30;;;25.00;38.20;;;;;;5007014;28;20111;-47
2022/01/05 10:09:41;;;;;;;0.60;0.25;;;25.00;38.10;;;;;;5006255;28;20030;-48
2022/01/05 10:12:08;;;;;;;0.73;0.25;;;25.00;38.20;;;;;;5006405;28;20045;-47
2022/01/05 10:14:34;;;;;;;1.05;0.35;;;25.00;38.10;;;;;;5005862;28;20117;-47
2022/01/05 10:17:21;;;;;;;1.45;0.30;;;25.00;37.90;;;;;;5006042;28;20026;-47
2022/01/05 10:20:05;;;;;;;0.45;0.15;;;25.00;38.10;;;;;;5006412;28;20049;-48
2022/01/05 10:22:42;;;;;;;1.38;0.40;;;25.00;38.00;;;;;;5006059;28;20609;-48
2022/01/05 10:25:13;;;;;;;0.88;0.35;;;25.00;38.00;;;;;;5021100;28;20068;-47
2022/01/05 10:27:39;;;;;;;1.13;0.22;;;25.00;37.90;;;;;;5005925;28;20041;-47
2022/01/05 10:30:14;;;;;;;0.93;0.30;;;25.00;38.00;;;;;;5005643;28;20487;-49
2022/01/05 10:32:44;;;;;;;0.55;0.20;;;24.90;38.00;;;;;;5006002;28;20088;-48
2022/01/05 10:35:17;;;;;;;0.10;0.10;;;25.00;38.00;;;;;;5006179;28;20026;-47
2022/01/05 10:37:45;;;;;;;0.20;0.10;;;25.00;38.00;;;;;;5015531;28;20564;-45
2022/01/05 10:40:20;;;;;;;0.63;0.20;;;25.00;38.00;;;;;;5024354;28;20038;-48
2022/01/05 10:42:52;;;;;;;1.10;0.28;;;25.00;38.00;;;;;;5012959;28;20394;-49
2022/01/05 10:45:21;;;;;;;0.47;0.20;;;25.00;37.90;;;;;;5005748;28;20022;-47
2022/01/05 10:48:08;;;;;;;0.63;0.20;;;25.00;37.90;;;;;;5005413;28;20084;-48
2022/01/05 10:50:35;;;;;;;0.45;0.10;;;25.00;38.00;;;;;;5025859;28;20045;-47
2022/01/05 10:53:02;;;;;;;0.68;0.20;;;25.00;37.80;;;;;;5044547;28;20033;-47
2022/01/05 10:55:30;;;;;;;1.20;0.30;;;25.00;37.90;;;;;;5045607;28;20090;-47
2022/01/05 10:58:11;;;;;;;0.38;0.10;;;25.00;37.80;;;;;;5044682;28;20037;-49
2022/01/05 11:00:56;;;;;;;0.30;0.10;;;25.00;37.90;;;;;;5038492;28;20133;-49
2022/01/05 11:03:26;;;;;;;0.70;0.20;;;25.00;37.80;;;;;;5004903;28;20117;-48
2022/01/05 11:06:09;;;;;;;0.68;0.28;;;25.00;37.90;;;;;;5005900;28;20061;-49
2022/01/05 11:08:51;;;;;;;0.30;0.10;;;25.00;37.80;;;;;;5005366;28;20492;-47
2022/01/05 11:11:32;;;;;;;0.43;0.20;;;25.00;37.80;;;;;;5005559;28;20025;-48
2022/01/05 11:13:58;;;;;;;0.80;0.30;;;25.00;37.80;;;;;;5004519;28;20030;-49
2022/01/05 11:16:31;;;;;;;0.70;0.20;;;25.00;37.60;;;;;;5004968;28;20733;-48
2022/01/05 11:19:13;;;;;;;0.90;0.30;;;25.00;37.80;;;;;;5005263;28;20113;-47
2022/01/05 11:21:39;;;;;;;0.57;0.30;;;25.00;37.70;;;;;;5005213;28;20073;-48
2022/01/05 11:24:06;;;;;;;0.93;0.28;;;25.00;37.80;;;;;;5004868;28;20129;-46
2022/01/05 11:26:35;;;;;;;0.82;0.20;;;25.00;37.70;;;;;;5005359;28;20105;-47
2022/01/05 11:29:03;;;;;;;0.70;0.30;;;25.00;37.70;;;;;;5003872;28;20030;-47
2022/01/05 11:31:31;;;;;;;0.50;0.30;;;25.00;37.70;;;;;;5005507;28;20469;-48
2022/01/05 11:33:58;;;;;;;0.80;0.30;;;25.00;37.60;;;;;;5004677;28;20037;-48
2022/01/05 11:36:25;;;;;;;1.13;0.30;;;25.00;37.70;;;;;;5004904;28;20034;-46
2022/01/05 11:38:50;;;;;;;0.85;0.30;;;25.00;37.60;;;;;;5017715;28;20478;-48
2022/01/05 11:41:17;;;;;;;0.90;0.30;;;25.00;38.30;;;;;;5017394;28;20087;-46
2022/01/05 11:43:44;;;;;;;0.80;0.40;;;25.00;37.70;;;;;;5003898;28;20029;-48
2022/01/05 11:46:19;;;;;;;1.95;0.40;;;25.00;37.70;;;;;;5005699;28;20025;-47
2022/01/05 11:49:24;;;;;;;2.40;0.45;;;25.00;37.90;;;;;;5004602;28;20529;-47
2022/01/05 11:51:51;;;;;;;1.90;0.38;;;25.00;37.90;;;;;;5022386;28;20045;-49
2022/01/05 11:55:00;;;;;;;2.88;0.50;;;25.00;37.80;;;;;;5023781;28;20588;-48
2022/01/05 11:57:26;;;;;;;1.55;0.38;;;25.00;37.90;;;;;;5020667;28;20037;-47
2022/01/05 12:00:11;;;;;;;2.92;0.40;;;25.00;37.90;;;;;;5023695;28;20482;-49
2022/01/05 12:02:40;;;;;;;1.92;0.50;;;25.00;37.90;;;;;;5004501;28;20108;-48
2022/01/05 12:05:06;;;;;;;1.27;0.40;;;25.00;38.00;;;;;;5004037;28;20022;-48
2022/01/05 12:07:34;;;;;;;1.70;0.68;;;25.00;37.90;;;;;;5004071;28;20037;-47
2022/01/05 12:10:09;;;;;;;1.35;0.50;;;25.00;37.80;;;;;;5004639;28;20306;-48
2022/01/05 12:12:36;;;;;;;1.92;0.93;;;25.00;37.90;;;;;;5004237;28;20399;-48
2022/01/05 12:15:04;;;;;;;2.47;0.80;;;25.00;37.90;;;;;;5005209;28;20022;-48
2022/01/05 12:17:30;;;;;;;1.90;0.85;;;25.00;37.80;;;;;;5004267;28;20036;-47
2022/01/05 12:19:56;;;;;;;2.00;0.80;;;25.00;37.90;;;;;;5003201;28;20110;-48
2022/01/05 12:22:26;;;;;;;2.42;1.13;;;24.90;37.90;;;;;;5004216;28;20030;-49
2022/01/05 12:25:00;;;;;;;1.88;0.90;;;25.00;37.80;;;;;;5005071;28;20233;-47
2022/01/05 12:27:33;;;;;;;2.42;1.35;;;24.90;37.90;;;;;;5008605;28;20072;-48
2022/01/05 12:30:03;;;;;;;3.03;1.20;;;24.90;37.80;;;;;;5007746;28;20068;-50
2022/01/05 12:32:34;;;;;;;2.90;1.25;;;24.90;37.80;;;;;;5007895;28;20095;-49
2022/01/05 12:35:05;;;;;;;2.35;1.00;;;24.90;37.90;;;;;;5008164;28;20552;-48
2022/01/05 12:37:37;;;;;;;2.03;1.10;;;24.90;38.60;;;;;;5008115;28;20105;-48
2022/01/05 12:40:21;;;;;;;2.20;1.20;;;24.90;37.90;;;;;;5007941;28;20574;-48
2022/01/05 12:42:47;;;;;;;5.05;1.38;;;24.90;37.90;;;;;;5007474;28;20026;-48
2022/01/05 12:45:51;;;;;;;3.05;1.30;;;24.90;37.90;;;;;;5008316;28;20065;-47
2022/01/05 12:48:49;;;;;;;3.00;1.25;;;24.80;37.90;;;;;;5006275;28;20037;-49
2022/01/05 12:51:18;;;;;;;2.97;1.23;;;24.80;37.80;;;;;;5039269;28;20068;-47
2022/01/05 12:53:54;;;;;;;2.40;1.40;;;24.80;37.80;;;;;;5046924;28;20329;-47